sensor_id;sensor_type;location;lat;lon;timestamp;pressure;altitude;pressure_sealevel;temperature;humidity
57086;BME280;42964;42.910;23.792;2023-11-19T00:01:18;97641.25;;;3.95;63.52
57086;BME280;42964;42.910;23.792;2023-11-19T00:06:17;97641.28;;;3.97;63.90
57086;BME280;42964;42.910;23.792;2023-11-19T00:11:16;97647.47;;;4.05;64.42
57086;BME280;42964;42.910;23.792;2023-11-19T00:16:15;97641.41;;;4.01;63.34
57086;BME280;42964;42.910;23.792;2023-11-19T00:21:15;97642.41;;;4.08;62.07
57086;BME280;42964;42.910;23.792;2023-11-19T00:26:13;97650.78;;;4.01;62.30
57086;BME280;42964;42.910;23.792;2023-11-19T00:31:13;97628.94;;;4.18;61.30
57086;BME280;42964;42.910;23.792;2023-11-19T00:36:12;97630.34;;;4.43;60.82
57086;BME280;42964;42.910;23.792;2023-11-19T00:41:11;97636.72;;;4.64;60.41
57086;BME280;42964;42.910;23.792;2023-11-19T00:46:10;97627.72;;;4.84;59.32
57086;BME280;42964;42.910;23.792;2023-11-19T00:51:11;97625.44;;;4.56;59.28
57086;BME280;42964;42.910;23.792;2023-11-19T00:56:11;97636.59;;;4.56;59.16
57086;BME280;42964;42.910;23.792;2023-11-19T01:01:13;97634.53;;;4.40;59.44
57086;BME280;42964;42.910;23.792;2023-11-19T01:06:13;97631.09;;;4.82;58.63
57086;BME280;42964;42.910;23.792;2023-11-19T01:11:22;97627.13;;;4.54;58.46
57086;BME280;42964;42.910;23.792;2023-11-19T01:16:22;97599.41;;;4.40;58.30
57086;BME280;42964;42.910;23.792;2023-11-19T01:21:21;97624.97;;;4.33;58.39
57086;BME280;42964;42.910;23.792;2023-11-19T01:26:20;97624.81;;;4.67;57.59
57086;BME280;42964;42.910;23.792;2023-11-19T01:31:19;97632.22;;;4.95;56.90
57086;BME280;42964;42.910;23.792;2023-11-19T01:36:18;97622.72;;;4.92;56.77
57086;BME280;42964;42.910;23.792;2023-11-19T01:41:17;97625.03;;;5.21;56.33
57086;BME280;42964;42.910;23.792;2023-11-19T01:46:16;97634.91;;;5.46;56.08
57086;BME280;42964;42.910;23.792;2023-11-19T01:51:16;97632.25;;;5.42;54.99
57086;BME280;42964;42.910;23.792;2023-11-19T01:56:15;97618.56;;;5.44;54.93
57086;BME280;42964;42.910;23.792;2023-11-19T02:01:14;97642.19;;;5.72;54.81
57086;BME280;42964;42.910;23.792;2023-11-19T02:06:14;97616.06;;;5.50;55.22
57086;BME280;42964;42.910;23.792;2023-11-19T02:11:14;97633.34;;;5.56;55.29
57086;BME280;42964;42.910;23.792;2023-11-19T02:16:13;97628.22;;;5.56;54.65
57086;BME280;42964;42.910;23.792;2023-11-19T02:21:12;97622.44;;;5.21;54.55
57086;BME280;42964;42.910;23.792;2023-11-19T02:31:24;97627.47;;;5.15;54.71
57086;BME280;42964;42.910;23.792;2023-11-19T02:36:26;97629.56;;;4.91;54.72
57086;BME280;42964;42.910;23.792;2023-11-19T02:41:25;97637.38;;;4.95;54.65
57086;BME280;42964;42.910;23.792;2023-11-19T02:46:24;97606.69;;;4.60;55.04
57086;BME280;42964;42.910;23.792;2023-11-19T02:51:25;97626.44;;;4.62;54.65
57086;BME280;42964;42.910;23.792;2023-11-19T02:56:23;97629.91;;;4.64;54.96
57086;BME280;42964;42.910;23.792;2023-11-19T03:01:26;97627.59;;;4.78;54.74
57086;BME280;42964;42.910;23.792;2023-11-19T03:06:32;97623.31;;;4.77;55.15
57086;BME280;42964;42.910;23.792;2023-11-19T03:11:31;97588.44;;;4.47;54.59
57086;BME280;42964;42.910;23.792;2023-11-19T03:16:30;97637.09;;;4.82;54.78
57086;BME280;42964;42.910;23.792;2023-11-19T03:21:29;97632.06;;;4.87;55.09
57086;BME280;42964;42.910;23.792;2023-11-19T03:26:29;97639.00;;;4.91;54.81
57086;BME280;42964;42.910;23.792;2023-11-19T03:31:28;97649.38;;;4.94;55.16
57086;BME280;42964;42.910;23.792;2023-11-19T03:36:32;97649.50;;;5.00;54.81
57086;BME280;42964;42.910;23.792;2023-11-19T03:41:31;97640.84;;;4.95;54.54
57086;BME280;42964;42.910;23.792;2023-11-19T03:46:30;97660.00;;;5.12;54.19
57086;BME280;42964;42.910;23.792;2023-11-19T03:51:29;97666.19;;;5.22;54.42
57086;BME280;42964;42.910;23.792;2023-11-19T03:56:28;97660.56;;;5.42;54.09
57086;BME280;42964;42.910;23.792;2023-11-19T04:01:27;97670.00;;;5.43;54.32
57086;BME280;42964;42.910;23.792;2023-11-19T04:06:26;97673.69;;;5.57;53.75
57086;BME280;42964;42.910;23.792;2023-11-19T04:11:25;97678.06;;;5.61;54.21
57086;BME280;42964;42.910;23.792;2023-11-19T04:16:27;97669.50;;;5.64;54.69
57086;BME280;42964;42.910;23.792;2023-11-19T04:21:29;97684.19;;;5.69;54.84
57086;BME280;42964;42.910;23.792;2023-11-19T04:26:28;97691.13;;;5.72;54.25
57086;BME280;42964;42.910;23.792;2023-11-19T04:31:29;97687.50;;;5.62;54.53
57086;BME280;42964;42.910;23.792;2023-11-19T04:36:31;97682.34;;;5.62;55.62
57086;BME280;42964;42.910;23.792;2023-11-19T04:41:31;97691.69;;;5.55;56.15
57086;BME280;42964;42.910;23.792;2023-11-19T04:46:30;97683.72;;;5.42;56.37
57086;BME280;42964;42.910;23.792;2023-11-19T04:51:29;97699.84;;;5.33;56.25
57086;BME280;42964;42.910;23.792;2023-11-19T04:56:28;97695.78;;;5.00;57.53
57086;BME280;42964;42.910;23.792;2023-11-19T05:01:27;97688.56;;;4.84;57.86
57086;BME280;42964;42.910;23.792;2023-11-19T05:06:30;97703.94;;;4.81;58.23
57086;BME280;42964;42.910;23.792;2023-11-19T05:11:29;97700.19;;;4.66;59.05
57086;BME280;42964;42.910;23.792;2023-11-19T05:16:28;97713.69;;;4.56;59.75
57086;BME280;42964;42.910;23.792;2023-11-19T05:21:27;97704.84;;;4.43;60.46
57086;BME280;42964;42.910;23.792;2023-11-19T05:26:26;97701.19;;;4.34;61.01
57086;BME280;42964;42.910;23.792;2023-11-19T05:31:25;97684.47;;;4.15;61.40
57086;BME280;42964;42.910;23.792;2023-11-19T05:36:24;97716.41;;;4.26;61.75
57086;BME280;42964;42.910;23.792;2023-11-19T05:41:22;97712.03;;;4.20;61.90
57086;BME280;42964;42.910;23.792;2023-11-19T05:46:21;97730.00;;;4.20;61.96
57086;BME280;42964;42.910;23.792;2023-11-19T05:51:21;97733.53;;;4.25;62.38
57086;BME280;42964;42.910;23.792;2023-11-19T05:56:22;97659.16;;;3.94;63.26
57086;BME280;42964;42.910;23.792;2023-11-19T06:01:21;97740.06;;;4.49;63.33
57086;BME280;42964;42.910;23.792;2023-11-19T06:06:20;97747.25;;;4.62;63.68
57086;BME280;42964;42.910;23.792;2023-11-19T06:11:19;97734.66;;;4.75;63.35
57086;BME280;42964;42.910;23.792;2023-11-19T06:16:19;97750.69;;;5.02;63.24
57086;BME280;42964;42.910;23.792;2023-11-19T06:21:19;97730.47;;;5.19;63.60
57086;BME280;42964;42.910;23.792;2023-11-19T06:26:18;97722.25;;;5.39;63.19
57086;BME280;42964;42.910;23.792;2023-11-19T06:31:17;97731.91;;;5.50;62.87
57086;BME280;42964;42.910;23.792;2023-11-19T06:36:16;97727.66;;;5.52;60.36
57086;BME280;42964;42.910;23.792;2023-11-19T06:41:15;97738.06;;;5.59;59.96
57086;BME280;42964;42.910;23.792;2023-11-19T06:46:15;97739.22;;;5.76;60.06
57086;BME280;42964;42.910;23.792;2023-11-19T06:51:15;97759.19;;;5.88;59.16
57086;BME280;42964;42.910;23.792;2023-11-19T06:56:19;97762.09;;;6.08;59.26
57086;BME280;42964;42.910;23.792;2023-11-19T07:01:18;97765.03;;;6.29;58.07
57086;BME280;42964;42.910;23.792;2023-11-19T07:06:17;97750.81;;;6.54;56.74
57086;BME280;42964;42.910;23.792;2023-11-19T07:11:16;97762.25;;;6.73;56.37
57086;BME280;42964;42.910;23.792;2023-11-19T07:16:15;97730.34;;;6.65;54.86
57086;BME280;42964;42.910;23.792;2023-11-19T07:21:14;97761.06;;;7.11;54.47
57086;BME280;42964;42.910;23.792;2023-11-19T07:26:13;97771.56;;;7.28;52.92
57086;BME280;42964;42.910;23.792;2023-11-19T07:31:13;97719.88;;;7.21;52.88
57086;BME280;42964;42.910;23.792;2023-11-19T07:36:12;97747.81;;;7.53;52.69
57086;BME280;42964;42.910;23.792;2023-11-19T07:41:11;97751.34;;;7.60;50.53
57086;BME280;42964;42.910;23.792;2023-11-19T07:46:12;97773.97;;;7.87;49.63
57086;BME280;42964;42.910;23.792;2023-11-19T07:51:14;97784.47;;;8.02;49.27
57086;BME280;42964;42.910;23.792;2023-11-19T07:56:13;97784.56;;;8.08;49.17
57086;BME280;42964;42.910;23.792;2023-11-19T08:01:12;97777.56;;;8.00;48.28
57086;BME280;42964;42.910;23.792;2023-11-19T08:06:12;97787.16;;;8.12;48.11
57086;BME280;42964;42.910;23.792;2023-11-19T08:11:11;97766.31;;;7.93;47.95
57086;BME280;42964;42.910;23.792;2023-11-19T08:16:10;97799.06;;;7.97;48.06
57086;BME280;42964;42.910;23.792;2023-11-19T08:21:09;97796.78;;;8.31;48.54
57086;BME280;42964;42.910;23.792;2023-11-19T08:26:09;97792.69;;;8.56;48.51
57086;BME280;42964;42.910;23.792;2023-11-19T08:31:08;97781.69;;;8.89;48.03
57086;BME280;42964;42.910;23.792;2023-11-19T08:36:07;97778.41;;;9.15;47.58
57086;BME280;42964;42.910;23.792;2023-11-19T08:41:06;97804.31;;;9.21;45.33
57086;BME280;42964;42.910;23.792;2023-11-19T08:46:11;97800.94;;;9.31;46.26
57086;BME280;42964;42.910;23.792;2023-11-19T08:51:10;97801.03;;;9.47;45.89
57086;BME280;42964;42.910;23.792;2023-11-19T08:56:09;97800.88;;;9.27;45.28
57086;BME280;42964;42.910;23.792;2023-11-19T09:01:08;97786.94;;;8.96;45.24
57086;BME280;42964;42.910;23.792;2023-11-19T09:06:08;97781.81;;;9.11;46.05
57086;BME280;42964;42.910;23.792;2023-11-19T09:11:07;97770.44;;;8.77;45.43
57086;BME280;42964;42.910;23.792;2023-11-19T09:16:08;97761.81;;;8.79;46.31
57086;BME280;42964;42.910;23.792;2023-11-19T09:21:07;97765.25;;;8.80;46.89
57086;BME280;42964;42.910;23.792;2023-11-19T09:26:08;97774.69;;;8.70;46.66
57086;BME280;42964;42.910;23.792;2023-11-19T09:31:14;97770.25;;;8.54;46.22
57086;BME280;42964;42.910;23.792;2023-11-19T09:36:13;97753.63;;;8.21;46.87
57086;BME280;42964;42.910;23.792;2023-11-19T09:41:15;97741.44;;;8.04;46.97
57086;BME280;42964;42.910;23.792;2023-11-19T09:46:15;97748.34;;;8.07;47.25
57086;BME280;42964;42.910;23.792;2023-11-19T09:51:15;97739.69;;;8.03;47.26
57086;BME280;42964;42.910;23.792;2023-11-19T09:56:14;97716.47;;;8.06;47.29
57086;BME280;42964;42.910;23.792;2023-11-19T10:01:13;97739.66;;;8.00;47.73
57086;BME280;42964;42.910;23.792;2023-11-19T10:06:14;97728.41;;;7.92;47.46
57086;BME280;42964;42.910;23.792;2023-11-19T10:11:13;97726.69;;;7.96;47.90
57086;BME280;42964;42.910;23.792;2023-11-19T10:16:14;97722.53;;;8.08;47.98
57086;BME280;42964;42.910;23.792;2023-11-19T10:21:13;97731.16;;;8.12;47.35
57086;BME280;42964;42.910;23.792;2023-11-19T10:26:16;97733.69;;;8.07;48.02
57086;BME280;42964;42.910;23.792;2023-11-19T10:31:15;97722.53;;;8.08;47.80
57086;BME280;42964;42.910;23.792;2023-11-19T10:36:14;97660.03;;;7.55;48.32
57086;BME280;42964;42.910;23.792;2023-11-19T10:41:26;97711.84;;;7.72;47.82
57086;BME280;42964;42.910;23.792;2023-11-19T10:46:42;97704.22;;;7.85;48.13
57086;BME280;42964;42.910;23.792;2023-11-19T10:51:45;97718.03;;;7.89;48.44
57086;BME280;42964;42.910;23.792;2023-11-19T10:56:48;97709.44;;;7.92;47.53
57086;BME280;42964;42.910;23.792;2023-11-19T11:01:53;97714.31;;;7.61;47.92
57086;BME280;42964;42.910;23.792;2023-11-19T11:06:58;97711.84;;;7.72;47.86
57086;BME280;42964;42.910;23.792;2023-11-19T11:11:59;97697.22;;;7.72;48.28
57086;BME280;42964;42.910;23.792;2023-11-19T11:16:58;97692.00;;;7.68;47.81
57086;BME280;42964;42.910;23.792;2023-11-19T11:21:57;97685.06;;;7.63;48.00
57086;BME280;42964;42.910;23.792;2023-11-19T11:27:21;97684.28;;;7.71;47.98
57086;BME280;42964;42.910;23.792;2023-11-19T11:32:45;97695.44;;;7.65;47.74
57086;BME280;42964;42.910;23.792;2023-11-19T11:38:04;97690.94;;;7.47;47.62
57086;BME280;42964;42.910;23.792;2023-11-19T11:43:59;97694.50;;;7.58;48.27
57086;BME280;42964;42.910;23.792;2023-11-19T11:48:51;97680.75;;;7.59;48.24
57086;BME280;42964;42.910;23.792;2023-11-19T11:53:51;97685.06;;;7.62;48.53
57086;BME280;42964;42.910;23.792;2023-11-19T11:58:50;97687.69;;;7.65;48.40
57086;BME280;42964;42.910;23.792;2023-11-19T12:03:50;97678.34;;;7.79;47.55
57086;BME280;42964;42.910;23.792;2023-11-19T12:08:49;97663.59;;;7.71;47.95
57086;BME280;42964;42.910;23.792;2023-11-19T12:13:55;97664.69;;;7.96;47.49
57086;BME280;42964;42.910;23.792;2023-11-19T12:19:02;97647.44;;;7.90;47.45
57086;BME280;42964;42.910;23.792;2023-11-19T12:24:05;97635.41;;;7.92;47.35
57086;BME280;42964;42.910;23.792;2023-11-19T12:29:06;97636.31;;;8.00;47.12
57086;BME280;42964;42.910;23.792;2023-11-19T12:34:07;97625.88;;;7.85;46.96
57086;BME280;42964;42.910;23.792;2023-11-19T12:39:10;97619.84;;;7.89;47.43
57086;BME280;42964;42.910;23.792;2023-11-19T12:44:11;97616.44;;;7.93;46.99
57086;BME280;42964;42.910;23.792;2023-11-19T12:49:11;97630.16;;;7.86;46.97
57086;BME280;42964;42.910;23.792;2023-11-19T12:54:10;97623.22;;;7.79;46.87
57086;BME280;42964;42.910;23.792;2023-11-19T12:59:11;97627.56;;;7.84;47.68
57086;BME280;42964;42.910;23.792;2023-11-19T13:04:18;97631.06;;;7.91;47.14
57086;BME280;42964;42.910;23.792;2023-11-19T13:09:27;97627.69;;;8.03;47.26
57086;BME280;42964;42.910;23.792;2023-11-19T13:14:36;97607.00;;;8.00;47.28
57086;BME280;42964;42.910;23.792;2023-11-19T13:19:37;97582.88;;;8.01;47.31
57086;BME280;42964;42.910;23.792;2023-11-19T13:24:35;97600.25;;;8.19;47.40
57086;BME280;42964;42.910;23.792;2023-11-19T13:29:34;97613.06;;;8.02;46.64
57086;BME280;42964;42.910;23.792;2023-11-19T13:34:33;97602.66;;;7.93;46.76
57086;BME280;42964;42.910;23.792;2023-11-19T13:39:34;97618.72;;;7.53;47.07
57086;BME280;42964;42.910;23.792;2023-11-19T13:44:33;97568.28;;;7.02;47.91
57086;BME280;42964;42.910;23.792;2023-11-19T13:49:32;97607.91;;;7.09;47.80
57086;BME280;42964;42.910;23.792;2023-11-19T13:54:32;97616.59;;;7.15;48.11
57086;BME280;42964;42.910;23.792;2023-11-19T13:59:31;97630.31;;;7.11;48.40
57086;BME280;42964;42.910;23.792;2023-11-19T14:04:31;97640.50;;;6.99;48.76
57086;BME280;42964;42.910;23.792;2023-11-19T14:09:30;97667.84;;;6.85;48.90
57086;BME280;42964;42.910;23.792;2023-11-19T14:14:29;97689.19;;;6.73;49.22
57086;BME280;42964;42.910;23.792;2023-11-19T14:19:28;97693.28;;;6.57;50.08
57086;BME280;42964;42.910;23.792;2023-11-19T14:24:27;97701.47;;;6.28;49.57
57086;BME280;42964;42.910;23.792;2023-11-19T14:29:27;97691.19;;;6.31;50.21
57086;BME280;42964;42.910;23.792;2023-11-19T14:34:27;97653.22;;;6.19;49.90
57086;BME280;42964;42.910;23.792;2023-11-19T14:39:26;97655.78;;;6.18;50.27
57086;BME280;42964;42.910;23.792;2023-11-19T14:44:25;97658.84;;;5.94;50.10
57086;BME280;42964;42.910;23.792;2023-11-19T14:49:24;97673.44;;;5.93;50.54
57086;BME280;42964;42.910;23.792;2023-11-19T14:54:23;97655.22;;;5.83;50.60
57086;BME280;42964;42.910;23.792;2023-11-19T14:59:22;97675.00;;;5.85;50.71
57086;BME280;42964;42.910;23.792;2023-11-19T15:04:21;97677.53;;;5.82;50.88
57086;BME280;42964;42.910;23.792;2023-11-19T15:09:20;97679.94;;;5.70;50.72
57086;BME280;42964;42.910;23.792;2023-11-19T15:14:19;97685.81;;;5.64;51.08
57086;BME280;42964;42.910;23.792;2023-11-19T15:19:18;97697.72;;;5.58;51.26
57086;BME280;42964;42.910;23.792;2023-11-19T15:24:19;97704.47;;;5.51;52.07
57086;BME280;42964;42.910;23.792;2023-11-19T15:29:17;97707.69;;;5.41;52.51
57086;BME280;42964;42.910;23.792;2023-11-19T15:34:17;97700.66;;;5.30;52.54
57086;BME280;42964;42.910;23.792;2023-11-19T15:39:16;97651.97;;;4.96;52.55
57086;BME280;42964;42.910;23.792;2023-11-19T15:44:14;97666.59;;;4.98;52.73
57086;BME280;42964;42.910;23.792;2023-11-19T15:49:13;97679.56;;;5.03;52.88
57086;BME280;42964;42.910;23.792;2023-11-19T15:54:12;97672.69;;;5.03;53.52
57086;BME280;42964;42.910;23.792;2023-11-19T15:59:11;97661.41;;;4.95;53.86
57086;BME280;42964;42.910;23.792;2023-11-19T16:04:10;97672.28;;;4.85;55.29
57086;BME280;42964;42.910;23.792;2023-11-19T16:09:09;97674.47;;;4.66;56.13
57086;BME280;42964;42.910;23.792;2023-11-19T16:14:13;97654.53;;;4.53;56.24
57086;BME280;42964;42.910;23.792;2023-11-19T16:19:13;97657.78;;;4.46;56.50
57086;BME280;42964;42.910;23.792;2023-11-19T16:24:12;97662.00;;;4.42;56.93
57086;BME280;42964;42.910;23.792;2023-11-19T16:29:11;97651.75;;;4.44;57.13
57086;BME280;42964;42.910;23.792;2023-11-19T16:34:10;97634.69;;;4.47;57.96
57086;BME280;42964;42.910;23.792;2023-11-19T16:39:09;97636.44;;;4.50;57.75
57086;BME280;42964;42.910;23.792;2023-11-19T16:44:09;97640.09;;;4.60;57.78
57086;BME280;42964;42.910;23.792;2023-11-19T16:49:08;97653.09;;;4.67;57.63
57086;BME280;42964;42.910;23.792;2023-11-19T16:54:07;97658.53;;;4.83;57.34
57086;BME280;42964;42.910;23.792;2023-11-19T16:59:06;97660.69;;;5.02;57.28
57086;BME280;42964;42.910;23.792;2023-11-19T17:04:05;97656.66;;;5.17;56.74
57086;BME280;42964;42.910;23.792;2023-11-19T17:09:04;97653.50;;;5.30;57.26
57086;BME280;42964;42.910;23.792;2023-11-19T17:14:03;97668.28;;;5.42;57.02
57086;BME280;42964;42.910;23.792;2023-11-19T17:19:02;97652.13;;;5.50;56.92
57086;BME280;42964;42.910;23.792;2023-11-19T17:24:01;97648.75;;;5.54;56.87
57086;BME280;42964;42.910;23.792;2023-11-19T17:29:01;97647.78;;;5.46;56.92
57086;BME280;42964;42.910;23.792;2023-11-19T17:34:00;97648.56;;;5.42;56.72
57086;BME280;42964;42.910;23.792;2023-11-19T17:38:59;97654.53;;;5.41;56.42
57086;BME280;42964;42.910;23.792;2023-11-19T17:43:59;97660.56;;;5.43;56.61
57086;BME280;42964;42.910;23.792;2023-11-19T17:48:58;97665.63;;;5.37;57.09
57086;BME280;42964;42.910;23.792;2023-11-19T17:53:57;97677.28;;;5.20;57.48
57086;BME280;42964;42.910;23.792;2023-11-19T17:58:56;97665.31;;;5.22;57.87
57086;BME280;42964;42.910;23.792;2023-11-19T18:03:55;97667.00;;;5.18;58.17
57086;BME280;42964;42.910;23.792;2023-11-19T18:08:54;97658.38;;;5.18;58.28
57086;BME280;42964;42.910;23.792;2023-11-19T18:13:54;97664.41;;;5.18;58.30
57086;BME280;42964;42.910;23.792;2023-11-19T18:18:53;97654.13;;;5.20;58.52
57086;BME280;42964;42.910;23.792;2023-11-19T18:23:52;97660.69;;;5.02;59.24
57086;BME280;42964;42.910;23.792;2023-11-19T18:28:51;97660.50;;;4.95;59.33
57086;BME280;42964;42.910;23.792;2023-11-19T18:33:52;97676.63;;;4.87;59.73
57086;BME280;42964;42.910;23.792;2023-11-19T18:38:51;97676.44;;;4.77;60.81
57086;BME280;42964;42.910;23.792;2023-11-19T18:43:50;97668.53;;;4.67;61.16
57086;BME280;42964;42.910;23.792;2023-11-19T18:48:48;97670.31;;;4.71;61.13
57086;BME280;42964;42.910;23.792;2023-11-19T18:53:48;97661.00;;;4.77;61.46
57086;BME280;42964;42.910;23.792;2023-11-19T18:58:46;97661.53;;;4.62;61.57
57086;BME280;42964;42.910;23.792;2023-11-19T19:03:45;97669.47;;;4.72;60.92
57086;BME280;42964;42.910;23.792;2023-11-19T19:08:44;97667.03;;;4.79;61.09
57086;BME280;42964;42.910;23.792;2023-11-19T19:13:44;97680.09;;;4.88;60.70
57086;BME280;42964;42.910;23.792;2023-11-19T19:18:43;97647.38;;;4.81;60.76
57086;BME280;42964;42.910;23.792;2023-11-19T19:23:42;97663.25;;;5.02;59.95
57086;BME280;42964;42.910;23.792;2023-11-19T19:28:41;97656.63;;;5.13;58.86
57086;BME280;42964;42.910;23.792;2023-11-19T19:33:40;97649.00;;;5.18;58.65
57086;BME280;42964;42.910;23.792;2023-11-19T19:38:39;97639.66;;;5.25;58.11
57086;BME280;42964;42.910;23.792;2023-11-19T19:43:38;97641.50;;;5.32;58.10
57086;BME280;42964;42.910;23.792;2023-11-19T19:48:38;97641.63;;;5.38;57.31
57086;BME280;42964;42.910;23.792;2023-11-19T19:53:38;97633.84;;;5.37;56.88
57086;BME280;42964;42.910;23.792;2023-11-19T19:58:37;97625.34;;;5.39;56.56
57086;BME280;42964;42.910;23.792;2023-11-19T20:03:38;97603.44;;;5.12;55.68
57086;BME280;42964;42.910;23.792;2023-11-19T20:08:40;97610.50;;;5.23;55.44
57086;BME280;42964;42.910;23.792;2023-11-19T20:13:39;97530.66;;;4.72;55.35
57086;BME280;42964;42.910;23.792;2023-11-19T20:18:38;97583.34;;;4.93;56.05
57086;BME280;42964;42.910;23.792;2023-11-19T20:23:36;97569.91;;;4.64;56.25
57086;BME280;42964;42.910;23.792;2023-11-19T20:28:35;97576.50;;;4.49;56.04
57086;BME280;42964;42.910;23.792;2023-11-19T20:33:34;97581.66;;;4.51;56.07
57086;BME280;42964;42.910;23.792;2023-11-19T20:38:33;97563.59;;;4.46;56.72
57086;BME280;42964;42.910;23.792;2023-11-19T20:43:32;97572.34;;;4.56;56.67
57086;BME280;42964;42.910;23.792;2023-11-19T20:48:31;97562.72;;;4.46;57.09
57086;BME280;42964;42.910;23.792;2023-11-19T20:53:30;97552.03;;;4.24;57.71
57086;BME280;42964;42.910;23.792;2023-11-19T20:58:29;97560.81;;;3.96;58.13
57086;BME280;42964;42.910;23.792;2023-11-19T21:03:29;97567.97;;;4.10;57.84
57086;BME280;42964;42.910;23.792;2023-11-19T21:08:28;97576.56;;;4.12;57.69
57086;BME280;42964;42.910;23.792;2023-11-19T21:13:27;97570.44;;;4.05;58.12
57086;BME280;42964;42.910;23.792;2023-11-19T21:18:26;97560.09;;;4.02;57.66
57086;BME280;42964;42.910;23.792;2023-11-19T21:23:25;97554.16;;;4.04;57.32
57086;BME280;42964;42.910;23.792;2023-11-19T21:28:27;97569.59;;;4.06;57.70
57086;BME280;42964;42.910;23.792;2023-11-19T21:33:26;97572.19;;;4.06;58.16
57086;BME280;42964;42.910;23.792;2023-11-19T21:38:26;97568.44;;;3.92;58.10
57086;BME280;42964;42.910;23.792;2023-11-19T21:43:26;97570.81;;;3.82;58.64
57086;BME280;42964;42.910;23.792;2023-11-19T21:48:25;97576.47;;;3.69;60.27
57086;BME280;42964;42.910;23.792;2023-11-19T21:53:25;97558.78;;;3.43;61.88
57086;BME280;42964;42.910;23.792;2023-11-19T21:58:24;97542.47;;;3.41;61.97
57086;BME280;42964;42.910;23.792;2023-11-19T22:03:23;97548.72;;;3.53;61.61
57086;BME280;42964;42.910;23.792;2023-11-19T22:08:22;97530.84;;;3.56;62.14
57086;BME280;42964;42.910;23.792;2023-11-19T22:13:21;97524.88;;;3.57;62.41
57086;BME280;42964;42.910;23.792;2023-11-19T22:18:21;97538.09;;;3.37;62.72
57086;BME280;42964;42.910;23.792;2023-11-19T22:23:20;97525.47;;;3.45;61.67
57086;BME280;42964;42.910;23.792;2023-11-19T22:28:19;97527.69;;;3.68;61.45
57086;BME280;42964;42.910;23.792;2023-11-19T22:33:18;97516.91;;;3.82;61.52
57086;BME280;42964;42.910;23.792;2023-11-19T22:38:17;97498.28;;;3.93;60.96
57086;BME280;42964;42.910;23.792;2023-11-19T22:43:16;97520.66;;;3.98;60.68
57086;BME280;42964;42.910;23.792;2023-11-19T22:48:15;97520.94;;;4.12;60.21
57086;BME280;42964;42.910;23.792;2023-11-19T22:53:14;97531.72;;;4.37;58.57
57086;BME280;42964;42.910;23.792;2023-11-19T22:58:15;97533.88;;;4.61;58.40
57086;BME280;42964;42.910;23.792;2023-11-19T23:03:14;97529.28;;;4.90;58.30
57086;BME280;42964;42.910;23.792;2023-11-19T23:08:13;97533.16;;;5.13;57.02
57086;BME280;42964;42.910;23.792;2023-11-19T23:13:12;97531.75;;;5.34;56.83
57086;BME280;42964;42.910;23.792;2023-11-19T23:18:11;97526.06;;;5.55;56.33
57086;BME280;42964;42.910;23.792;2023-11-19T23:23:10;97525.28;;;5.59;56.34
57086;BME280;42964;42.910;23.792;2023-11-19T23:28:09;97497.66;;;5.47;55.97
57086;BME280;42964;42.910;23.792;2023-11-19T23:33:08;97543.41;;;5.67;56.15
57086;BME280;42964;42.910;23.792;2023-11-19T23:38:07;97515.91;;;5.63;56.35
57086;BME280;42964;42.910;23.792;2023-11-19T23:43:06;97540.38;;;5.94;56.63
57086;BME280;42964;42.910;23.792;2023-11-19T23:48:06;97513.91;;;6.06;56.63
57086;BME280;42964;42.910;23.792;2023-11-19T23:53:06;97514.03;;;6.15;56.43
57086;BME280;42964;42.910;23.792;2023-11-19T23:58:08;97517.50;;;6.17;55.96
